Flight Track Log - Related Links

Times and Time Zones

All times are in EDT time to prevent confusion due to time zone crossing. See the N95155 flight status page for this flight to view local times or setup timezone preferences in your user account.

Time Position Orientation Groundspeed Altitude Reporting Facility
EDT Latitude Longitude Course Direction KTS MPH feet Rate Location/Type
Tue 10:38:02 AM 41.9628 -86.3186 46° Northeast 75 86 2,100  Level Chicago Center
Tue 10:39:04 AM 41.9806 -86.3039 32° Northeast 77 89 2,600 435 Climbing Chicago Center
Tue 10:40:06 AM 41.9636 -86.2944 157° South 94 108 3,000 387 Climbing Chicago Center
Tue 10:41:08 AM 41.9364 -86.3022 192° South 98 113 3,400 387 Climbing Chicago Center
Tue 10:42:00 AM 41.9511 -86.3679 45° Northeast  Level Estimated
Tue 10:42:10 AM 41.9111 -86.3125 197° South 96 110 3,800  Level Chicago Center
Tue 10:43:00 AM 41.9511 -86.3679 46° Northeast  Level Estimated
Tue 10:43:12 AM 41.8781 -86.3075 174° South 99 114 4,000  Level Chicago Center
Tue 10:44:14 AM 41.8478 -86.3067 179° South 106 122 4,100  Climbing Chicago Center
Tue 10:45:16 AM 41.8156 -86.3050 178° South 113 130 4,000 -48 Descending Chicago Center
Tue 10:46:18 AM 41.7850 -86.3164 196° South 114 131 4,000 -48 Level Chicago Center
Tue 10:47:21 AM 41.7536 -86.3242 190° South 114 131 3,900  Descending Chicago Center
Tue 10:48:23 AM 41.7219 -86.3308 189° South 115 132 4,000 48 Climbing Chicago Center
Tue 10:49:25 AM 41.6925 -86.3550 212° Southwest 110 127 4,000  Level Chicago Center
Tue 10:50:27 AM 41.6689 -86.3769 215° Southwest 106 122 4,000 48 Level Chicago Center
Tue 10:51:29 AM 41.6439 -86.3975 212° Southwest 105 121 4,100 48 Climbing Chicago Center
Tue 10:52:31 AM 41.6206 -86.4200 216° Southwest 105 121 4,100  Level Chicago Center
Tue 10:53:33 AM 41.5967 -86.4475 221° Southwest 108 124 4,100  Level Chicago Center
Tue 10:54:35 AM 41.5778 -86.4764 229° Southwest 109 125 4,100 -48 Level Chicago Center
Tue 10:55:37 AM 41.5433 -86.4972 204° Southwest 114 131 4,000 -48 Descending Chicago Center
Tue 10:56:39 AM 41.5144 -86.5128 202° Southwest 114 131 4,000  Level Chicago Center
Tue 10:57:40 AM 41.4839 -86.5269 199° South 115 132 4,000  Level Chicago Center
Tue 10:58:42 AM 41.4569 -86.5442 206° Southwest 114 131 4,000 -48 Level Chicago Center
Tue 10:59:44 AM 41.4306 -86.5683 214° Southwest 114 131 3,900 -242 Descending Chicago Center
Tue 11:00:46 AM 41.4083 -86.5964 223° Southwest 113 130 3,500 -387 Descending Chicago Center
Tue 11:01:48 AM 41.3758 -86.6214 210° Southwest 111 128 3,100 -242 Descending Chicago Center
Tue 11:02:50 AM 41.3456 -86.6356 199° South 113 130 3,000  Descending Chicago Center
Tue 11:03:52 AM 41.3181 -86.6483 199° South 107 123 3,100 97 Climbing Chicago Center
Tue 11:04:54 AM 41.2894 -86.6439 173° South 106 122 3,200  Climbing Chicago Center
Tue 11:05:56 AM 41.2603 -86.6325 164° South 109 125 3,100 -290 Descending Chicago Center
Tue 11:06:58 AM 41.2258 -86.6208 166° South 109 125 2,600 -484 Descending Chicago Center

Login

Don't have an account? Register now (free) for customized features, flight alerts, and more!